Time;durP1;ratioP1;P1;durP2;ratioP2;P2;SDS_P1;SDS_P2;PMS_P1;PMS_P2;Temp;Humidity;BMP_temperature;BMP_pressure;BME280_temperature;BME280_humidity;BME280_pressure;Samples;Min_cycle;Max_cycle;Signal;HPM_P1;HPM_P2
2021/01/15 00:01:48;;;;;;;11.20;4.73;;;;;;;;;;5014385;28;20104;-69
2021/01/15 00:04:14;;;;;;;6.90;2.57;;;;;;;;;;5014444;28;20117;-68
2021/01/15 00:06:40;;;;;;;7.47;3.50;;;;;;;;;;5014350;28;20030;-68
2021/01/15 00:09:06;;;;;;;6.23;3.20;;;;;;;;;;5014663;28;20026;-68
2021/01/15 00:11:33;;;;;;;5.60;2.87;;;;;;;;;;5014547;28;20459;-68
2021/01/15 00:14:00;;;;;;;5.37;2.50;;;;;;;;;;5014565;28;20418;-68
2021/01/15 00:16:27;;;;;;;5.07;2.27;;;;;;;;;;5014487;28;20061;-68
2021/01/15 00:18:55;;;;;;;5.23;1.90;;;8.90;29.20;;;;;;5013956;28;20050;-68
2021/01/15 00:21:28;;;;;;;6.27;2.27;;;4.40;45.90;;;;;;5013897;28;20023;-68
2021/01/15 00:23:55;;;;;;;;;;;4.30;46.70;;;;;;5014458;28;20491;-68
2021/01/15 00:26:22;;;;;;;5.87;2.50;;;4.20;46.30;;;;;;5013906;28;19913;-68
2021/01/15 00:28:49;;;;;;;7.63;2.80;;;4.20;46.20;;;;;;5013900;28;20076;-68
2021/01/15 00:31:14;;;;;;;11.27;3.73;;;4.20;46.00;;;;;;5014021;28;20034;-68
2021/01/15 00:33:40;;;;;;;16.80;7.87;;;4.10;46.00;;;;;;5013792;28;20352;-68
2021/01/15 00:36:08;;;;;;;203.77;98.03;;;4.10;47.30;;;;;;5014072;28;20022;-68
2021/01/15 00:38:34;;;;;;;229.53;118.67;;;4.00;46.20;;;;;;5013826;28;20021;-68
2021/01/15 00:41:00;;;;;;;77.57;37.97;;;4.00;46.30;;;;;;5014069;28;20018;-68
2021/01/15 00:43:26;;;;;;;23.43;11.20;;;4.00;45.40;;;;;;5013826;28;20483;-68
2021/01/15 00:45:52;;;;;;;11.90;6.00;;;3.90;46.20;;;;;;5012368;28;20034;-68
2021/01/15 00:48:18;;;;;;;8.77;4.63;;;3.90;47.00;;;;;;5013599;28;20121;-68
2021/01/15 00:50:43;;;;;;;6.80;3.17;;;3.90;47.70;;;;;;5013925;28;20030;-68
2021/01/15 00:53:09;;;;;;;6.03;3.30;;;3.90;47.60;;;;;;5013458;28;20034;-68
2021/01/15 00:55:35;;;;;;;5.80;2.97;;;3.90;48.10;;;;;;5013514;28;20041;-68
2021/01/15 00:58:02;;;;;;;5.23;2.50;;;3.80;48.50;;;;;;5013026;28;20040;-68
2021/01/15 01:00:29;;;;;;;3.83;2.20;;;3.80;48.10;;;;;;5013500;28;20022;-68
2021/01/15 01:02:56;;;;;;;4.87;2.30;;;3.80;48.60;;;;;;5013518;28;20022;-68
2021/01/15 01:05:22;;;;;;;4.70;2.63;;;3.80;47.90;;;;;;5012998;28;20057;-68
2021/01/15 01:07:49;;;;;;;5.73;2.47;;;3.80;48.60;;;;;;5013232;28;20119;-68
2021/01/15 01:10:15;;;;;;;5.07;2.87;;;3.70;48.70;;;;;;5013313;28;20067;-68
2021/01/15 01:12:42;;;;;;;4.17;2.17;;;3.70;48.90;;;;;;5013318;28;20040;-68
2021/01/15 01:15:12;;;;;;;4.87;2.87;;;3.70;49.20;;;;;;5013153;28;20084;-68
2021/01/15 01:17:38;;;;;;;3.67;2.20;;;3.70;49.50;;;;;;5013109;28;20032;-68
2021/01/15 01:20:06;;;;;;;3.63;2.10;;;3.70;49.70;;;;;;5013066;28;20503;-68
2021/01/15 01:22:32;;;;;;;3.97;2.00;;;3.60;50.70;;;;;;5013213;28;20054;-68
2021/01/15 01:24:57;;;;;;;5.00;2.30;;;3.60;50.60;;;;;;5013501;28;20471;-68
2021/01/15 01:27:23;;;;;;;4.93;2.50;;;3.50;49.80;;;;;;5013024;28;20135;-68
2021/01/15 01:29:49;;;;;;;3.50;2.13;;;3.50;50.30;;;;;;5013263;28;20494;-68
2021/01/15 01:32:15;;;;;;;4.90;2.60;;;3.40;49.90;;;;;;5012948;28;20105;-68
2021/01/15 01:34:40;;;;;;;4.27;2.13;;;3.40;50.20;;;;;;5012790;28;20111;-68
2021/01/15 01:37:06;;;;;;;4.10;2.20;;;3.30;50.40;;;;;;5012851;28;20026;-69
2021/01/15 01:39:32;;;;;;;5.07;2.37;;;3.30;51.40;;;;;;5012849;28;20022;-68
2021/01/15 01:41:58;;;;;;;4.67;2.60;;;3.30;50.40;;;;;;5013190;28;20029;-69
2021/01/15 01:44:24;;;;;;;5.00;2.33;;;;;;;;;;5012797;28;20093;-68
2021/01/15 01:46:51;;;;;;;4.60;2.70;;;;;;;;;;5012625;28;20018;-68
2021/01/15 01:49:17;;;;;;;5.23;2.87;;;;;;;;;;5012779;28;20027;-68
2021/01/15 01:51:45;;;;;;;6.37;2.67;;;;;;;;;;5012694;28;20065;-68
2021/01/15 01:54:12;;;;;;;5.57;2.97;;;;;;;;;;5012753;28;20041;-68
2021/01/15 01:56:39;;;;;;;4.87;2.83;;;;;;;;;;5012737;28;20092;-68
2021/01/15 01:59:06;;;;;;;4.10;2.43;;;;;;;;;;5010413;28;20022;-69
2021/01/15 02:01:32;;;;;;;4.30;2.20;;;;;;;;;;5010087;28;20026;-68
2021/01/15 02:04:07;;;;;;;5.03;2.37;;;;;;;;;;5010042;28;20028;-68
2021/01/15 02:06:34;;;;;;;3.87;2.10;;;;;;;;;;5011910;28;20105;-68
2021/01/15 02:09:03;;;;;;;3.60;2.03;;;;;;;;;;5013024;28;20030;-68
2021/01/15 02:11:42;;;;;;;4.30;2.30;;;3.30;49.70;;;;;;5014771;28;20030;-68
2021/01/15 02:14:46;;;;;;;3.70;1.77;;;3.30;49.90;;;;;;5016216;28;20033;-68
2021/01/15 02:17:16;;;;;;;6.20;2.93;;;3.30;49.90;;;;;;5053815;28;20029;-68
2021/01/15 02:19:54;;;;;;;3.17;1.93;;;3.30;49.80;;;;;;5053749;28;20095;-68
2021/01/15 02:22:42;;;;;;;3.77;2.20;;;3.30;49.50;;;;;;5031686;28;20045;-68
2021/01/15 02:25:25;;;;;;;7.63;2.80;;;3.30;50.30;;;;;;5015952;28;20483;-68
2021/01/15 02:28:35;;;;;;;6.20;2.35;;;3.30;50.10;;;;;;5015852;28;20034;-71
2021/01/15 02:31:38;;;;;;;3.30;1.87;;;3.30;50.40;;;;;;5030426;28;20069;-68
2021/01/15 02:34:27;;;;;;;3.85;2.00;;;3.30;50.20;;;;;;5015906;28;20045;-68
2021/01/15 02:37:19;;;;;;;3.50;2.00;;;3.30;51.60;;;;;;5015462;28;20030;-68
2021/01/15 02:39:53;;;;;;;3.70;1.73;;;3.30;51.70;;;;;;5015856;28;20034;-71
2021/01/15 02:42:23;;;;;;;5.10;1.87;;;3.30;51.70;;;;;;5015822;28;20386;-68
2021/01/15 02:44:51;;;;;;;4.17;2.00;;;3.30;51.50;;;;;;5015373;28;20030;-69
2021/01/15 02:47:48;;;;;;;3.73;2.23;;;3.30;50.50;;;;;;5015396;28;20479;-69
2021/01/15 02:50:15;;;;;;;3.23;1.67;;;3.30;51.70;;;;;;5018664;28;20062;-68
2021/01/15 02:52:42;;;;;;;3.80;1.73;;;3.30;49.90;;;;;;5015529;28;20116;-68
2021/01/15 02:55:10;;;;;;;3.83;1.70;;;3.30;49.70;;;;;;5015487;28;20042;-70
2021/01/15 02:57:36;;;;;;;3.67;2.13;;;3.30;51.00;;;;;;5015168;28;20042;-68
2021/01/15 03:00:04;;;;;;;4.50;1.90;;;3.30;50.10;;;;;;5015764;28;20030;-68
2021/01/15 03:02:50;;;;;;;2.87;1.77;;;3.30;50.70;;;;;;5015472;28;20030;-68
2021/01/15 03:05:38;;;;;;;3.67;2.00;;;3.30;50.30;;;;;;5015478;28;20052;-68
2021/01/15 03:08:05;;;;;;;3.73;1.97;;;3.30;50.00;;;;;;5015068;28;20030;-70
2021/01/15 03:10:33;;;;;;;6.57;2.07;;;3.30;49.70;;;;;;5015449;28;20018;-68
2021/01/15 03:13:01;;;;;;;5.93;2.20;;;3.30;52.30;;;;;;5015257;28;20025;-68
2021/01/15 03:15:29;;;;;;;4.27;2.10;;;3.30;52.80;;;;;;5015330;28;20034;-68
2021/01/15 03:17:56;;;;;;;4.17;2.00;;;3.30;52.00;;;;;;5014938;28;20045;-68
2021/01/15 03:20:23;;;;;;;3.33;1.67;;;3.30;51.80;;;;;;5015216;28;20046;-68
2021/01/15 03:22:50;;;;;;;6.30;2.30;;;3.30;52.10;;;;;;5014528;28;20022;-68
2021/01/15 03:25:16;;;;;;;3.47;1.90;;;3.30;53.60;;;;;;5015241;28;20054;-68
2021/01/15 03:27:45;;;;;;;3.47;1.87;;;3.30;53.00;;;;;;5015034;28;20033;-68
2021/01/15 03:30:15;;;;;;;4.60;2.07;;;3.20;52.10;;;;;;5015369;28;20015;-68
2021/01/15 03:32:42;;;;;;;2.83;1.77;;;3.30;52.30;;;;;;5015059;28;20033;-69
2021/01/15 03:35:08;;;;;;;4.00;1.80;;;3.30;53.00;;;;;;5014810;28;20486;-68
2021/01/15 03:37:35;;;;;;;4.60;2.00;;;3.30;52.70;;;;;;5014904;28;20367;-68
2021/01/15 03:40:02;;;;;;;3.50;1.80;;;3.30;52.20;;;;;;5014928;28;20382;-68
2021/01/15 03:42:28;;;;;;;2.80;1.40;;;3.30;54.40;;;;;;5014743;28;20037;-68
2021/01/15 03:44:53;;;;;;;6.57;2.10;;;3.30;54.20;;;;;;5014587;28;20022;-68
2021/01/15 03:47:19;;;;;;;3.33;1.83;;;3.30;55.00;;;;;;5014515;28;20057;-68
2021/01/15 03:49:45;;;;;;;5.07;1.70;;;3.30;54.80;;;;;;5014638;28;20091;-68
2021/01/15 03:52:11;;;;;;;4.33;1.70;;;3.30;53.80;;;;;;5014692;28;20026;-68
2021/01/15 03:54:37;;;;;;;4.20;1.87;;;3.30;54.20;;;;;;5014645;28;20171;-68
2021/01/15 03:57:04;;;;;;;2.93;1.83;;;3.30;54.60;;;;;;5014639;28;20022;-68
2021/01/15 03:59:30;;;;;;;3.57;1.70;;;3.30;54.30;;;;;;5014891;28;20437;-68
2021/01/15 04:01:55;;;;;;;4.40;1.40;;;3.30;55.50;;;;;;5014448;28;20112;-68
2021/01/15 04:04:21;;;;;;;4.53;2.07;;;3.40;55.80;;;;;;5014526;28;20387;-68
2021/01/15 04:06:47;;;;;;;2.40;1.50;;;3.40;56.60;;;;;;5014393;28;20502;-69
2021/01/15 04:09:12;;;;;;;4.13;2.10;;;3.40;57.90;;;;;;5014531;28;20105;-68
2021/01/15 04:11:38;;;;;;;3.60;1.63;;;3.40;56.40;;;;;;5014380;28;20033;-68
2021/01/15 04:14:04;;;;;;;3.13;1.57;;;3.40;57.40;;;;;;5014097;28;20545;-68
2021/01/15 04:16:30;;;;;;;3.53;2.00;;;3.50;65.80;;;;;;5014012;28;20590;-68
2021/01/15 04:18:56;;;;;;;3.20;1.97;;;;;;;;;;5014029;28;20041;-68
2021/01/15 04:21:21;;;;;;;4.57;2.00;;;3.30;52.70;;;;;;5013999;28;20427;-68
2021/01/15 04:23:47;;;;;;;3.27;1.73;;;3.40;52.70;;;;;;5014091;28;20101;-68
2021/01/15 04:26:19;;;;;;;3.67;1.80;;;3.30;53.30;;;;;;5014096;28;20034;-68
2021/01/15 04:28:46;;;;;;;3.15;1.50;;;3.30;52.70;;;;;;5013808;28;20025;-68
2021/01/15 04:31:19;;;;;;;3.00;1.73;;;3.40;52.60;;;;;;5013722;28;20026;-68
2021/01/15 04:33:44;;;;;;;;;;;3.40;52.40;;;;;;5013229;28;20038;-68
2021/01/15 04:36:11;;;;;;;3.43;1.60;;;3.40;53.00;;;;;;5014015;28;19996;-68
2021/01/15 04:38:41;;;;;;;4.17;1.60;;;3.40;53.70;;;;;;5013827;28;20029;-67
2021/01/15 04:41:07;;;;;;;2.83;1.50;;;3.40;50.70;;;;;;5013624;28;20018;-70
2021/01/15 04:43:35;;;;;;;2.97;1.50;;;3.40;52.70;;;;;;5013623;28;20091;-68
2021/01/15 04:46:03;;;;;;;2.90;1.50;;;3.40;52.70;;;;;;5013788;28;20030;-68
2021/01/15 04:48:33;;;;;;;3.40;1.80;;;3.30;53.10;;;;;;5013467;28;20034;-69
2021/01/15 04:51:00;;;;;;;3.70;1.77;;;3.30;52.10;;;;;;5013510;28;20072;-68
2021/01/15 04:53:29;;;;;;;5.00;1.70;;;3.30;52.60;;;;;;5013487;28;20080;-68
2021/01/15 04:55:59;;;;;;;2.27;1.33;;;3.30;52.80;;;;;;5013541;28;20033;-68
2021/01/15 04:58:39;;;;;;;2.50;1.30;;;3.30;55.70;;;;;;5013460;28;20477;-68
2021/01/15 05:01:09;;;;;;;2.27;1.27;;;3.30;54.50;;;;;;5013318;28;20109;-71
2021/01/15 05:03:41;;;;;;;3.00;1.37;;;3.30;54.40;;;;;;5013668;28;20072;-68
2021/01/15 05:06:08;;;;;;;4.17;1.67;;;3.30;55.30;;;;;;5013426;28;20053;-68
2021/01/15 05:08:38;;;;;;;2.93;1.30;;;3.30;55.70;;;;;;5013062;28;20475;-68
2021/01/15 05:11:04;;;;;;;3.97;1.73;;;3.30;57.00;;;;;;5013005;28;20032;-68
2021/01/15 05:13:36;;;;;;;3.37;1.70;;;3.30;55.30;;;;;;5013072;28;20022;-68
2021/01/15 05:16:03;;;;;;;2.92;1.60;;;3.30;54.50;;;;;;5013182;28;20101;-68
2021/01/15 05:18:32;;;;;;;2.00;1.40;;;3.30;54.80;;;;;;5012719;28;20056;-69
2021/01/15 05:20:58;;;;;;;5.53;1.90;;;3.30;53.50;;;;;;5013094;28;20033;-68
2021/01/15 05:23:24;;;;;;;4.93;1.93;;;3.30;54.60;;;;;;5013206;28;20561;-68
2021/01/15 05:25:50;;;;;;;7.00;2.10;;;3.30;54.50;;;;;;5013196;28;20108;-68
2021/01/15 05:28:17;;;;;;;12.83;1.90;;;3.30;53.90;;;;;;5013137;28;20105;-68
2021/01/15 05:30:43;;;;;;;6.47;2.07;;;3.30;54.20;;;;;;5013165;28;20490;-67
2021/01/15 05:33:15;;;;;;;14.43;2.37;;;3.30;55.20;;;;;;5012942;28;20072;-68
2021/01/15 05:35:42;;;;;;;6.30;1.93;;;3.30;55.50;;;;;;5012896;28;20045;-68
2021/01/15 05:38:08;;;;;;;8.43;1.97;;;3.30;55.30;;;;;;5013144;28;20025;-68
2021/01/15 05:40:42;;;;;;;4.33;2.03;;;3.30;54.60;;;;;;5013013;28;20076;-68
2021/01/15 05:43:18;;;;;;;2.70;1.50;;;3.30;53.70;;;;;;5013301;28;20125;-71
2021/01/15 05:46:03;;;;;;;4.80;1.63;;;3.40;51.20;;;;;;5015070;28;20165;-68
2021/01/15 05:48:28;;;;;;;2.60;1.53;;;3.40;51.40;;;;;;5016748;28;20041;-68
2021/01/15 05:50:54;;;;;;;3.37;1.60;;;3.40;50.00;;;;;;5016735;28;20022;-68
2021/01/15 05:53:20;;;;;;;4.53;1.80;;;3.40;50.00;;;;;;5016760;28;20390;-68
2021/01/15 05:55:57;;;;;;;3.60;1.83;;;3.40;50.80;;;;;;5016908;28;20036;-68
2021/01/15 05:58:23;;;;;;;4.87;2.00;;;3.50;51.10;;;;;;5016818;28;20045;-70
2021/01/15 06:00:52;;;;;;;4.33;1.97;;;3.50;50.90;;;;;;5016659;28;20524;-68
2021/01/15 06:03:22;;;;;;;8.10;2.30;;;3.50;50.60;;;;;;5016561;28;20030;-68
2021/01/15 06:05:52;;;;;;;3.73;1.90;;;3.50;51.90;;;;;;5016787;28;20033;-68
2021/01/15 06:08:18;;;;;;;6.30;2.53;;;3.50;51.90;;;;;;5016432;28;20025;-68
2021/01/15 06:10:46;;;;;;;3.77;2.20;;;3.50;53.20;;;;;;5016495;28;20026;-69
2021/01/15 06:13:37;;;;;;;5.90;2.30;;;3.50;53.20;;;;;;5016549;28;20034;-68
2021/01/15 06:16:04;;;;;;;4.10;2.10;;;3.50;53.10;;;;;;5016197;28;20029;-71
2021/01/15 06:18:30;;;;;;;6.13;2.40;;;3.50;52.90;;;;;;5016165;28;20042;-71
2021/01/15 06:21:09;;;;;;;4.93;2.27;;;3.50;53.40;;;;;;5016789;28;20386;-69
2021/01/15 06:23:43;;;;;;;8.63;2.40;;;3.50;54.10;;;;;;5019375;28;20029;-69
2021/01/15 06:26:09;;;;;;;10.77;1.80;;;3.50;53.30;;;;;;5016868;28;20029;-69
2021/01/15 06:28:37;;;;;;;4.30;2.20;;;3.50;51.70;;;;;;5016213;28;20034;-69
2021/01/15 06:31:07;;;;;;;3.53;2.27;;;3.50;52.90;;;;;;5016315;28;20044;-69
2021/01/15 06:33:33;;;;;;;5.07;2.67;;;3.50;53.40;;;;;;5015916;28;20022;-68
2021/01/15 06:35:59;;;;;;;8.33;2.40;;;3.50;52.70;;;;;;5016171;28;20022;-69
2021/01/15 06:38:29;;;;;;;7.13;2.97;;;3.50;52.90;;;;;;5016116;28;20494;-69
2021/01/15 06:40:56;;;;;;;6.43;3.07;;;3.50;52.10;;;;;;5016556;28;20387;-68
2021/01/15 06:43:28;;;;;;;7.47;3.77;;;3.50;53.70;;;;;;5016079;28;20535;-71
2021/01/15 06:45:56;;;;;;;11.53;4.93;;;3.50;54.30;;;;;;5015998;28;20036;-70
2021/01/15 06:48:24;;;;;;;9.13;4.83;;;3.50;54.50;;;;;;5015777;28;20134;-71
2021/01/15 06:50:55;;;;;;;9.80;4.00;;;3.50;52.90;;;;;;5015711;28;20386;-72
2021/01/15 06:53:22;;;;;;;11.27;3.00;;;3.50;53.50;;;;;;5015969;28;20025;-73
2021/01/15 06:55:50;;;;;;;7.73;3.50;;;3.50;53.30;;;;;;5015345;28;20121;-67
2021/01/15 06:58:30;;;;;;;6.40;2.70;;;3.50;51.70;;;;;;5015138;28;20032;-70
2021/01/15 07:01:19;;;;;;;8.70;2.87;;;3.60;51.90;;;;;;5015681;28;20104;-71
2021/01/15 07:03:51;;;;;;;8.87;2.47;;;3.60;51.40;;;;;;5015759;28;20041;-68
2021/01/15 07:06:34;;;;;;;5.10;2.10;;;3.60;51.60;;;;;;5015437;28;20042;-71
2021/01/15 07:09:04;;;;;;;7.93;2.28;;;3.60;51.70;;;;;;5014978;28;20025;-68
2021/01/15 07:11:30;;;;;;;10.93;2.30;;;3.60;51.70;;;;;;5015229;28;20026;-71
2021/01/15 07:14:01;;;;;;;5.70;2.50;;;3.60;52.10;;;;;;5015456;28;20034;-67
2021/01/15 07:16:33;;;;;;;8.30;2.67;;;3.60;51.60;;;;;;5013378;28;20018;-67
2021/01/15 07:19:05;;;;;;;5.72;2.78;;;3.60;51.70;;;;;;5015211;28;20078;-67
2021/01/15 07:21:36;;;;;;;6.27;2.70;;;3.60;51.80;;;;;;5014651;28;20049;-70
2021/01/15 07:24:09;;;;;;;5.90;2.77;;;3.60;51.20;;;;;;5015256;28;20076;-68
2021/01/15 07:26:42;;;;;;;7.53;3.30;;;3.60;50.50;;;;;;5015232;28;20079;-68
2021/01/15 07:29:15;;;;;;;10.07;2.80;;;3.60;50.10;;;;;;5015408;28;20038;-67
2021/01/15 07:31:44;;;;;;;17.00;3.53;;;3.60;50.20;;;;;;5015290;28;20125;-67
2021/01/15 07:34:16;;;;;;;12.57;3.10;;;3.60;49.50;;;;;;5014965;28;20037;-68
2021/01/15 07:36:42;;;;;;;12.63;3.00;;;3.70;49.30;;;;;;5014728;28;20022;-68
2021/01/15 07:39:11;;;;;;;11.97;2.70;;;3.70;49.30;;;;;;5014809;28;20033;-68
2021/01/15 07:41:45;;;;;;;18.73;4.20;;;3.70;48.80;;;;;;5012450;28;20018;-68
2021/01/15 07:44:23;;;;;;;5.67;3.33;;;3.80;49.50;;;;;;5012785;28;20024;-70
2021/01/15 07:46:48;;;;;;;13.07;3.50;;;3.80;49.40;;;;;;5023011;28;20168;-71
2021/01/15 07:49:14;;;;;;;14.03;3.70;;;3.80;49.60;;;;;;5034031;28;20100;-71
2021/01/15 07:51:40;;;;;;;5.00;2.70;;;3.80;49.10;;;;;;5033748;28;20057;-72
2021/01/15 07:54:06;;;;;;;9.97;3.50;;;3.80;49.00;;;;;;5033714;28;20105;-68
2021/01/15 07:56:32;;;;;;;10.37;3.70;;;3.80;49.60;;;;;;5034446;28;20048;-69
2021/01/15 07:58:58;;;;;;;7.67;3.73;;;3.80;49.40;;;;;;5034613;28;20025;-68
2021/01/15 08:01:24;;;;;;;7.20;3.50;;;3.90;49.40;;;;;;5033644;28;20393;-67
2021/01/15 08:03:56;;;;;;;6.60;3.53;;;3.90;50.70;;;;;;5033126;28;20025;-68
2021/01/15 08:06:23;;;;;;;6.82;3.47;;;3.90;50.70;;;;;;5033951;28;20407;-68
2021/01/15 08:09:07;;;;;;;6.97;3.30;;;3.90;49.60;;;;;;5033340;28;20104;-68
2021/01/15 08:11:35;;;;;;;7.67;2.83;;;3.90;50.80;;;;;;5033838;28;20470;-71
2021/01/15 08:14:14;;;;;;;5.23;2.73;;;4.00;50.30;;;;;;5032689;28;20030;-71
2021/01/15 08:16:42;;;;;;;5.57;3.33;;;4.00;50.00;;;;;;5034005;28;20390;-70
2021/01/15 08:19:12;;;;;;;5.27;2.93;;;4.10;49.80;;;;;;5034306;28;20057;-70
2021/01/15 08:21:41;;;;;;;7.47;2.30;;;4.10;49.40;;;;;;5034224;28;20026;-68
2021/01/15 08:24:07;;;;;;;8.93;2.90;;;4.10;49.10;;;;;;5034113;28;20053;-68
2021/01/15 08:26:51;;;;;;;3.67;2.30;;;4.10;48.90;;;;;;5033942;28;20022;-68
2021/01/15 08:29:19;;;;;;;5.03;2.80;;;4.20;48.70;;;;;;5034009;28;20105;-68
2021/01/15 08:31:45;;;;;;;9.93;2.70;;;4.30;48.50;;;;;;5034147;28;20029;-71
2021/01/15 08:34:17;;;;;;;4.93;2.40;;;4.30;48.20;;;;;;5034159;28;20026;-68
2021/01/15 08:36:47;;;;;;;6.10;2.10;;;4.30;48.30;;;;;;5033814;28;20501;-68
2021/01/15 08:39:12;;;;;;;5.43;2.00;;;4.30;48.40;;;;;;5033824;28;20017;-70
2021/01/15 08:41:39;;;;;;;4.97;2.43;;;4.40;48.40;;;;;;5034130;28;20021;-68
2021/01/15 08:44:06;;;;;;;5.37;2.03;;;4.40;48.10;;;;;;5034074;28;20429;-68
2021/01/15 08:46:33;;;;;;;17.50;2.87;;;4.50;47.70;;;;;;5033554;28;20030;-68
2021/01/15 08:48:59;;;;;;;4.53;2.20;;;4.50;48.10;;;;;;5033866;28;20033;-68
2021/01/15 08:51:27;;;;;;;12.60;2.33;;;4.60;47.80;;;;;;5033521;28;20017;-68
2021/01/15 08:54:04;;;;;;;3.77;2.30;;;4.60;46.90;;;;;;5033453;28;20040;-68
2021/01/15 08:56:39;;;;;;;3.10;2.10;;;4.60;46.20;;;;;;5033463;28;20471;-68
2021/01/15 08:59:06;;;;;;;4.03;1.87;;;4.70;46.30;;;;;;5033756;28;20048;-68
2021/01/15 09:01:34;;;;;;;4.77;1.87;;;4.80;47.00;;;;;;5033467;28;20033;-68
2021/01/15 09:04:04;;;;;;;3.87;2.00;;;4.80;46.50;;;;;;5033600;28;20025;-68
2021/01/15 09:06:30;;;;;;;5.70;1.70;;;4.90;46.80;;;;;;5033508;28;20040;-68
2021/01/15 09:08:57;;;;;;;8.07;2.37;;;4.90;46.30;;;;;;5033401;28;20561;-68
2021/01/15 09:11:28;;;;;;;4.70;2.30;;;4.90;46.30;;;;;;5033162;28;20075;-68
2021/01/15 09:13:54;;;;;;;3.57;2.00;;;5.00;46.40;;;;;;5033205;28;20022;-68
2021/01/15 09:16:22;;;;;;;3.63;2.10;;;5.00;46.30;;;;;;5033151;28;20036;-68
2021/01/15 09:18:49;;;;;;;6.17;3.77;;;5.10;46.30;;;;;;5033371;28;20061;-68
2021/01/15 09:21:15;;;;;;;3.50;2.00;;;5.10;45.90;;;;;;5032918;28;20025;-67
2021/01/15 09:23:41;;;;;;;4.80;1.70;;;5.20;46.00;;;;;;5033368;28;20493;-68
2021/01/15 09:26:06;;;;;;;2.87;1.37;;;5.20;46.00;;;;;;5033220;28;20533;-68
2021/01/15 09:28:32;;;;;;;3.73;1.70;;;5.30;46.10;;;;;;5033107;28;20022;-68
2021/01/15 09:30:57;;;;;;;2.47;1.30;;;5.40;45.70;;;;;;5033196;28;20049;-68
2021/01/15 09:33:23;;;;;;;2.83;1.63;;;5.50;45.70;;;;;;5033227;28;20009;-68
2021/01/15 09:35:51;;;;;;;3.13;1.70;;;5.60;45.30;;;;;;5033124;28;20083;-68
2021/01/15 09:38:17;;;;;;;2.70;1.40;;;5.60;44.60;;;;;;5032873;28;20013;-68
2021/01/15 09:40:43;;;;;;;4.23;1.60;;;5.70;44.90;;;;;;5032978;28;20026;-67
2021/01/15 09:43:08;;;;;;;5.60;1.47;;;5.70;44.70;;;;;;5033257;28;20032;-68
2021/01/15 09:45:35;;;;;;;3.47;1.80;;;5.80;44.60;;;;;;5032848;28;20033;-68
2021/01/15 09:48:05;;;;;;;3.50;1.63;;;5.90;44.30;;;;;;5033075;28;20060;-68
2021/01/15 09:50:31;;;;;;;8.40;3.67;;;5.90;43.50;;;;;;5033189;28;20444;-68
2021/01/15 09:52:57;;;;;;;10.43;4.70;;;6.00;43.60;;;;;;5032695;28;20049;-68
2021/01/15 09:55:22;;;;;;;5.90;3.13;;;6.00;43.50;;;;;;5030539;28;20525;-68
2021/01/15 09:57:48;;;;;;;7.80;3.67;;;6.10;42.90;;;;;;5032812;28;20022;-68
2021/01/15 10:00:14;;;;;;;7.17;3.03;;;6.10;43.40;;;;;;5032591;28;20033;-68
2021/01/15 10:02:40;;;;;;;7.63;3.60;;;6.10;42.80;;;;;;5032615;28;20140;-68
2021/01/15 10:05:06;;;;;;;10.47;3.17;;;6.10;42.60;;;;;;5032228;28;20108;-69
2021/01/15 10:07:32;;;;;;;8.90;4.43;;;6.10;42.30;;;;;;5032485;28;20021;-68
2021/01/15 10:09:57;;;;;;;3.67;1.80;;;6.10;42.30;;;;;;5031889;28;20026;-68
2021/01/15 10:12:23;;;;;;;3.30;1.67;;;6.10;41.90;;;;;;5032084;28;20022;-68
2021/01/15 10:14:49;;;;;;;2.73;1.70;;;6.20;41.90;;;;;;5032226;28;20038;-70
2021/01/15 10:17:14;;;;;;;3.47;1.80;;;6.20;41.80;;;;;;5032140;28;20107;-69
2021/01/15 10:19:40;;;;;;;5.93;2.13;;;6.20;41.80;;;;;;5031969;28;20053;-68
2021/01/15 10:22:06;;;;;;;6.10;1.87;;;6.20;41.20;;;;;;5032359;28;20379;-69
2021/01/15 10:24:31;;;;;;;5.37;2.10;;;6.30;42.00;;;;;;5032091;28;20029;-68
2021/01/15 10:26:57;;;;;;;3.47;1.60;;;6.30;41.70;;;;;;5031901;28;20108;-69
2021/01/15 10:29:23;;;;;;;2.60;1.53;;;;;;;;;;5031640;28;20075;-68
2021/01/15 10:31:55;;;;;;;3.63;1.80;;;;;;;;;;5031000;28;20037;-67
2021/01/15 10:34:24;;;;;;;6.22;2.10;;;;;;;;;;5033128;28;20493;-67
2021/01/15 10:36:51;;;;;;;5.17;2.20;;;;;;;;;;5033481;28;20034;-69
2021/01/15 10:39:18;;;;;;;2.73;1.37;;;;;;;;;;5035171;28;20026;-67
2021/01/15 10:41:45;;;;;;;3.87;1.97;;;;;;;;;;5035542;28;20471;-73
2021/01/15 10:44:12;;;;;;;3.77;2.20;;;;;;;;;;5035591;28;20033;-78
2021/01/15 10:46:41;;;;;;;2.50;1.30;;;;;;;;;;5035580;28;20029;-71
2021/01/15 10:49:08;;;;;;;11.03;2.40;;;;;;;;;;5035799;28;20022;-67
2021/01/15 10:51:34;;;;;;;4.53;1.47;;;;;;;;;;5034155;28;20374;-70
2021/01/15 10:54:01;;;;;;;2.93;1.37;;;;;;;;;;5033350;28;20092;-68
2021/01/15 10:56:37;;;;;;;3.70;1.60;;;;;;;;;;5034075;28;20426;-68
2021/01/15 10:59:03;;;;;;;3.37;1.20;;;;;;;;;;5035020;28;20373;-68
2021/01/15 11:01:38;;;;;;;3.20;1.40;;;;;;;;;;5034869;28;20029;-68
2021/01/15 11:04:08;;;;;;;1.93;1.20;;;;;;;;;;5035167;28;20029;-67
2021/01/15 11:06:34;;;;;;;4.00;1.43;;;;;;;;;;5035271;28;20021;-71
2021/01/15 11:09:00;;;;;;;3.67;1.70;;;;;;;;;;5035277;28;20041;-67
2021/01/15 11:29:31;;;;;;;2.43;1.43;;;;;;;;;;5131399;27;20312;-69
2021/01/15 11:31:57;;;;;;;3.17;1.57;;;;;;;;;;5131225;28;20034;-69
2021/01/15 11:34:23;;;;;;;4.17;1.60;;;;;;;;;;5131521;28;20024;-68
2021/01/15 11:36:49;;;;;;;3.90;1.47;;;;;;;;;;5131273;28;20066;-69
2021/01/15 11:39:15;;;;;;;3.30;2.00;;;;;;;;;;5130931;28;20467;-69
2021/01/15 11:41:43;;;;;;;4.70;2.63;;;;;;;;;;5131184;28;20090;-69
2021/01/15 11:44:10;;;;;;;5.83;2.10;;;;;;;;;;5130752;28;20015;-69
2021/01/15 11:46:36;;;;;;;3.70;2.37;;;;;;;;;;5130333;28;20020;-74
2021/01/15 11:49:03;;;;;;;3.13;2.10;;;;;;;;;;5130673;28;20042;-70
2021/01/15 11:51:29;;;;;;;3.30;1.73;;;;;;;;;;5130932;28;20016;-69
2021/01/15 11:53:55;;;;;;;3.50;1.80;;;;;;;;;;5130825;28;20028;-68
2021/01/15 11:56:21;;;;;;;2.70;1.60;;;;;;;;;;5130908;28;20026;-68
2021/01/15 11:58:47;;;;;;;3.30;1.40;;;;;;;;;;5130854;27;20380;-68
2021/01/15 12:01:15;;;;;;;2.17;1.30;;;;;;;;;;5129201;28;20044;-70
2021/01/15 12:03:41;;;;;;;4.00;1.33;;;;;;;;;;5128238;28;20056;-70
2021/01/15 12:06:07;;;;;;;3.20;1.40;;;;;;;;;;5129128;28;20076;-69
2021/01/15 12:08:33;;;;;;;2.40;1.50;;;;;;;;;;5130684;28;20035;-69
2021/01/15 12:11:05;;;;;;;3.30;1.40;;;;;;;;;;5130482;28;20120;-69
2021/01/15 12:13:31;;;;;;;2.63;1.50;;;;;;;;;;5130303;27;20107;-69
2021/01/15 12:15:57;;;;;;;3.57;1.80;;;;;;;;;;5130285;28;20031;-69
2021/01/15 12:18:24;;;;;;;2.70;1.70;;;;;;;;;;5128356;28;20047;-69
2021/01/15 12:20:50;;;;;;;1.87;1.20;;;;;;;;;;5127445;28;20065;-69
2021/01/15 12:23:18;;;;;;;2.43;1.50;;;;;;;;;;5129215;28;20023;-69
2021/01/15 12:25:44;;;;;;;2.20;1.20;;;;;;;;;;5130509;28;20026;-69
2021/01/15 12:28:11;;;;;;;1.80;1.13;;;;;;;;;;5130206;28;20523;-68
2021/01/15 12:30:38;;;;;;;3.10;1.50;;;;;;;;;;5130546;28;20452;-69
2021/01/15 12:33:10;;;;;;;1.60;1.20;;;;;;;;;;5130121;28;20114;-69
2021/01/15 12:35:37;;;;;;;3.10;1.63;;;;;;;;;;5130064;28;20499;-69
2021/01/15 12:38:06;;;;;;;2.13;1.40;;;;;;;;;;5129895;28;20122;-69
2021/01/15 12:40:33;;;;;;;9.63;1.47;;;;;;;;;;5118254;28;20015;-69
2021/01/15 12:42:59;;;;;;;2.20;1.20;;;;;;;;;;5114797;28;20051;-70
2021/01/15 12:45:25;;;;;;;3.13;1.80;;;;;;;;;;5113427;28;20027;-69
2021/01/15 12:47:51;;;;;;;2.33;1.23;;;;;;;;;;5113431;28;20037;-69
2021/01/15 12:50:17;;;;;;;3.43;1.50;;;;;;;;;;5115955;28;20024;-69
2021/01/15 12:52:43;;;;;;;2.73;1.30;;;;;;;;;;5116481;28;20032;-69
2021/01/15 12:55:09;;;;;;;6.60;3.03;;;;;;;;;;5116221;28;20070;-69
2021/01/15 12:57:35;;;;;;;5.07;2.67;;;;;;;;;;5115689;28;20449;-68
2021/01/15 13:00:03;;;;;;;2.63;1.57;;;;;;;;;;5115578;28;20130;-68
2021/01/15 13:02:29;;;;;;;3.10;1.30;;;;;;;;;;5114533;28;20396;-70
2021/01/15 13:04:55;;;;;;;3.83;1.40;;;;;;;;;;5115680;28;20031;-70
2021/01/15 13:07:21;;;;;;;2.77;1.47;;;;;;;;;;5115749;28;20034;-70
2021/01/15 13:09:47;;;;;;;1.97;1.40;;;;;;;;;;5115407;28;20023;-70
2021/01/15 13:12:13;;;;;;;3.57;1.60;;;;;;;;;;5115444;28;20024;-70
2021/01/15 13:14:39;;;;;;;2.67;1.40;;;;;;;;;;5115891;28;20088;-70
2021/01/15 13:17:05;;;;;;;2.63;1.47;;;;;;;;;;5114509;28;20391;-70
2021/01/15 13:19:31;;;;;;;4.80;1.80;;;;;;;;;;5115854;28;20047;-70
2021/01/15 13:21:57;;;;;;;2.60;1.47;;;;;;;;;;5115742;28;20024;-70
2021/01/15 13:24:23;;;;;;;2.93;1.30;;;;;;;;;;5115615;28;20103;-69
2021/01/15 13:26:49;;;;;;;3.83;1.30;;;;;;;;;;5115360;28;20417;-71
2021/01/15 13:29:16;;;;;;;3.30;1.30;;;;;;;;;;5115255;28;20090;-70
2021/01/15 13:31:42;;;;;;;3.20;1.60;;;;;;;;;;5115706;28;20051;-69
2021/01/15 13:34:08;;;;;;;4.43;2.20;;;;;;;;;;5114301;28;20369;-70
2021/01/15 13:36:34;;;;;;;6.03;2.53;;;;;;;;;;5114087;28;20012;-70
2021/01/15 13:39:00;;;;;;;3.67;1.90;;;;;;;;;;5113968;28;20115;-69
2021/01/15 13:41:26;;;;;;;9.37;3.27;;;;;;;;;;5115346;28;20030;-69
2021/01/15 13:43:52;;;;;;;16.20;5.67;;;;;;;;;;5115104;28;20076;-70
2021/01/15 13:46:18;;;;;;;11.20;4.80;;;;;;;;;;5115264;28;20023;-71
2021/01/15 13:48:44;;;;;;;9.23;5.43;;;;;;;;;;5115044;28;20034;-71
2021/01/15 13:51:17;;;;;;;6.43;4.10;;;;;;;;;;5114245;28;20028;-70